logo
Search for airport 
image banner adimage banner adimage banner ad
image banner ad

SKIB - Ibague-Perales

Located in Ibague, Colombia

ICAO - SKIB, IATA - IBE

Data provided by Airmate  

General information

Coordinates: N4°25'18" W75°8'1"
Elevation is 3055 feet MSL.
Magnetic variation is -7° East
View others Airports in Tolima

Operational data

Special qualification required
Current time UTC:
Current local time:
Weather
METAR: SKIB 241600Z 18007KT 9999 FEW030 SCT100 31/16 Q1019
View NOTAMs / SUP AIP / TFR affecting this airport [VIEW]
Communications frequencies: [VIEW]

Runways:

RWY identifierQFULength (ft)Width (ft)SurfaceLDA (ft)
14131°590698ASPH5906
32311°590698ASPH5906

Airport contact information

Address: Ibague Colombia

Satellite view of SKIB